Time;durP1;ratioP1;P1;durP2;ratioP2;P2;SDS_P1;SDS_P2;PMS_P1;PMS_P2;Temp;Humidity;BMP_temperature;BMP_pressure;BME280_temperature;BME280_humidity;BME280_pressure;Samples;Min_cycle;Max_cycle;Signal;HPM_P1;HPM_P2
2021/11/12 07:00:58;;;;;;;56.72;23.15;;;11.20;99.90;;;;;;5568192;24;20087;-84
2021/11/12 07:03:26;;;;;;;44.65;19.17;;;11.20;99.90;;;;;;4883408;29;20085;-86
2021/11/12 07:05:53;;;;;;;51.15;22.58;;;11.20;99.90;;;;;;4885544;29;20052;-84
2021/11/12 07:08:20;;;;;;;37.35;18.40;;;11.20;99.90;;;;;;4880182;29;20506;-83
2021/11/12 07:10:52;;;;;;;55.55;22.70;;;11.20;99.90;;;;;;4892691;29;20525;-86
2021/11/12 07:13:25;;;;;;;36.58;18.20;;;11.30;99.90;;;;;;4896027;29;20053;-85
2021/11/12 07:15:53;;;;;;;31.30;17.77;;;11.30;99.90;;;;;;4881791;29;20057;-87
2021/11/12 07:18:21;;;;;;;24.90;13.87;;;11.30;99.90;;;;;;4888879;29;20112;-84
2021/11/12 07:20:50;;;;;;;31.67;14.38;;;11.30;99.90;;;;;;4886405;29;20506;-85
2021/11/12 07:23:19;;;;;;;34.25;15.50;;;11.40;99.90;;;;;;4882651;29;20048;-84
2021/11/12 07:25:48;;;;;;;21.92;10.65;;;11.40;99.90;;;;;;4879615;29;20049;-84
2021/11/12 07:28:15;;;;;;;27.55;10.82;;;11.40;99.90;;;;;;4880269;29;20593;-85
2021/11/12 07:30:43;;;;;;;25.02;12.05;;;11.50;99.90;;;;;;4892558;29;20103;-84
2021/11/12 07:33:11;;;;;;;25.20;11.52;;;11.50;99.90;;;;;;4881816;29;20091;-85
2021/11/12 07:38:15;;;;;;;24.85;12.30;;;11.60;99.90;;;;;;4879243;29;20514;-84
2021/11/12 07:41:02;;;;;;;22.98;12.18;;;11.70;99.90;;;;;;4892337;29;20048;-84
2021/11/12 07:49:03;;;;;;;22.02;12.05;;;11.70;99.90;;;;;;4891771;29;20108;-87
2021/11/12 07:51:31;;;;;;;25.98;11.18;;;11.80;99.90;;;;;;4876236;29;20104;-86
2021/11/12 07:53:58;;;;;;;27.58;11.65;;;11.80;99.90;;;;;;4876327;29;20052;-86
2021/11/12 07:56:26;;;;;;;32.75;11.23;;;11.90;99.90;;;;;;4875778;29;20100;-86
2021/11/12 07:58:53;;;;;;;24.02;10.73;;;11.90;99.90;;;;;;4876993;29;20057;-86
2021/11/12 08:01:20;;;;;;;30.85;11.95;;;11.90;99.90;;;;;;4872710;29;20133;-87
2021/11/12 08:03:53;;;;;;;27.50;11.55;;;12.00;99.90;;;;;;4876712;29;20053;-87
2021/11/12 08:06:21;;;;;;;29.23;11.43;;;12.00;99.90;;;;;;4875839;29;20049;-85
2021/11/12 08:09:12;;;;;;;24.10;11.32;;;12.00;99.90;;;;;;4877535;29;20181;-85
2021/11/12 08:14:20;;;;;;;36.83;12.25;;;12.10;99.90;;;;;;4876538;29;20059;-84
2021/11/12 08:19:22;;;;;;;33.42;12.63;;;12.10;99.90;;;;;;4884445;29;20041;-83
2021/11/12 08:32:50;;;;;;;30.13;11.27;;;12.20;99.90;;;;;;4878544;29;20048;-84
2021/11/12 08:35:37;;;;;;;32.13;12.10;;;12.30;99.90;;;;;;4873579;29;20045;-83
2021/11/12 08:38:18;;;;;;;23.33;10.65;;;12.30;99.90;;;;;;4880867;29;20428;-85
2021/11/12 08:43:51;;;;;;;25.10;10.40;;;12.40;99.90;;;;;;4828123;29;20453;-85
2021/11/12 08:46:26;;;;;;;27.45;10.18;;;12.40;99.90;;;;;;4817109;29;20062;-84
2021/11/12 08:51:32;;;;;;;27.10;10.52;;;12.50;99.90;;;;;;4824790;29;20050;-84
2021/11/12 08:54:01;;;;;;;24.02;10.20;;;12.50;99.90;;;;;;4814684;29;20058;-82
2021/11/12 08:56:29;;;;;;;24.92;10.55;;;12.50;99.90;;;;;;4829903;29;20154;-84
2021/11/12 08:58:56;;;;;;;26.63;10.80;;;12.60;99.90;;;;;;4832973;29;20075;-83
2021/11/12 09:01:23;;;;;;;28.05;11.23;;;12.60;99.90;;;;;;4830272;29;20062;-83
2021/11/12 09:03:53;;;;;;;26.83;10.35;;;12.70;99.90;;;;;;4817774;29;20053;-83
2021/11/12 09:06:25;;;;;;;26.27;10.50;;;12.70;99.90;;;;;;4831197;29;20073;-84
2021/11/12 09:08:53;;;;;;;19.73;9.23;;;12.70;99.90;;;;;;4831673;29;20045;-84
2021/11/12 09:11:20;;;;;;;25.00;9.93;;;12.70;99.90;;;;;;4829484;29;20058;-84
2021/11/12 09:13:51;;;;;;;23.92;9.15;;;12.70;99.90;;;;;;4830108;29;20054;-83
2021/11/12 09:16:19;;;;;;;20.88;8.85;;;12.80;99.90;;;;;;4831348;29;20068;-83
2021/11/12 09:18:50;;;;;;;22.48;8.32;;;12.80;99.90;;;;;;4837192;29;20133;-83
2021/11/12 09:21:17;;;;;;;19.48;8.38;;;12.80;99.90;;;;;;4851555;29;20079;-83
2021/11/12 09:23:45;;;;;;;21.77;9.02;;;12.80;99.90;;;;;;4848459;29;20042;-83
2021/11/12 09:26:15;;;;;;;26.20;9.02;;;12.80;99.90;;;;;;4820412;29;20061;-82
2021/11/12 09:28:42;;;;;;;20.17;8.55;;;12.90;99.90;;;;;;4844711;29;20070;-83
2021/11/12 09:31:09;;;;;;;23.67;9.20;;;12.90;99.90;;;;;;4851829;29;20050;-83
2021/11/12 09:33:37;;;;;;;23.15;8.98;;;12.90;99.90;;;;;;4841622;29;20057;-83
2021/11/12 09:36:08;;;;;;;27.80;9.77;;;12.90;99.90;;;;;;4843580;29;20061;-83
2021/11/12 09:38:36;;;;;;;22.90;8.95;;;13.00;99.90;;;;;;4843887;29;20048;-83
2021/11/12 09:41:08;;;;;;;30.63;9.48;;;13.00;99.90;;;;;;4834628;29;20045;-82
2021/11/12 09:43:36;;;;;;;31.08;10.10;;;13.10;99.90;;;;;;4839407;29;20061;-84
2021/11/12 09:46:06;;;;;;;31.15;9.98;;;13.10;99.90;;;;;;4842482;29;20065;-83
2021/11/12 09:48:35;;;;;;;33.33;9.50;;;13.10;99.90;;;;;;4850210;29;20037;-82
2021/11/12 09:51:03;;;;;;;36.28;9.50;;;13.10;99.90;;;;;;4849127;29;20467;-83
2021/11/12 09:53:31;;;;;;;39.85;9.88;;;13.10;99.90;;;;;;4843826;29;20076;-83
2021/11/12 09:55:58;;;;;;;42.30;10.50;;;13.20;99.90;;;;;;4853292;29;20053;-82
2021/11/12 09:58:25;;;;;;;43.70;9.90;;;13.20;99.90;;;;;;4837343;29;20049;-83
2021/11/12 10:00:58;;;;;;;39.55;11.35;;;13.20;99.90;;;;;;4849626;29;20113;-82
2021/11/12 10:03:32;;;;;;;41.78;12.05;;;13.30;99.90;;;;;;4889069;29;20044;-82
2021/11/12 10:06:20;;;;;;;36.58;10.32;;;13.30;99.90;;;;;;4887442;29;20041;-83
2021/11/12 10:08:48;;;;;;;47.55;9.98;;;13.40;99.90;;;;;;4885869;29;20420;-83
2021/11/12 10:11:22;;;;;;;32.58;8.48;;;13.40;99.90;;;;;;4888222;29;20049;-82
2021/11/12 10:13:58;;;;;;;40.13;8.43;;;13.50;99.90;;;;;;4877224;29;20083;-82
2021/11/12 10:16:45;;;;;;;37.72;7.93;;;13.50;99.90;;;;;;4876510;29;20053;-82
2021/11/12 10:19:22;;;;;;;32.78;7.82;;;13.50;99.90;;;;;;4874211;29;20052;-82
2021/11/12 10:22:01;;;;;;;40.67;7.35;;;13.60;99.90;;;;;;4879423;29;20447;-82
2021/11/12 10:24:42;;;;;;;29.35;7.75;;;13.60;99.90;;;;;;4888442;29;20144;-82
2021/11/12 10:27:18;;;;;;;41.75;8.20;;;13.60;99.90;;;;;;4882541;29;20514;-83
2021/11/12 10:29:48;;;;;;;28.35;7.28;;;13.70;99.90;;;;;;4882095;29;20049;-83
2021/11/12 10:32:19;;;;;;;29.98;6.78;;;13.70;99.90;;;;;;4885664;29;20057;-82
2021/11/12 10:34:49;;;;;;;36.35;7.00;;;13.70;99.90;;;;;;4888794;29;20073;-81
2021/11/12 10:37:26;;;;;;;35.17;6.93;;;13.80;99.90;;;;;;4887871;29;20120;-81
2021/11/12 10:40:11;;;;;;;33.58;7.03;;;13.80;99.90;;;;;;4878641;29;20060;-81
2021/11/12 10:42:43;;;;;;;31.88;6.15;;;13.90;99.90;;;;;;4887676;29;20037;-82
2021/11/12 10:45:16;;;;;;;32.78;6.25;;;13.90;99.90;;;;;;4878591;29;20049;-81
2021/11/12 10:47:47;;;;;;;27.73;6.55;;;13.90;99.90;;;;;;4880964;29;20044;-81
2021/11/12 10:50:16;;;;;;;30.58;6.35;;;13.90;99.90;;;;;;4887493;29;20124;-81
2021/11/12 10:52:43;;;;;;;37.70;7.45;;;13.90;99.90;;;;;;4893354;29;20518;-80
2021/11/12 10:55:16;;;;;;;28.55;6.28;;;14.00;99.90;;;;;;4887887;29;20112;-81
2021/11/12 10:57:51;;;;;;;34.28;7.03;;;14.00;99.90;;;;;;4888968;29;20100;-81
2021/11/12 11:00:39;;;;;;;29.40;6.68;;;14.00;99.90;;;;;;4884044;29;20994;-82
2021/11/12 11:03:09;;;;;;;22.65;5.85;;;14.00;99.90;;;;;;4890845;29;20064;-82
2021/11/12 11:05:55;;;;;;;39.78;6.60;;;14.00;99.90;;;;;;4880961;29;20083;-81
2021/11/12 11:08:28;;;;;;;36.13;7.03;;;14.10;99.90;;;;;;4881306;29;20053;-81
2021/11/12 11:11:00;;;;;;;32.28;6.78;;;14.00;99.90;;;;;;4881971;29;20051;-80
2021/11/12 11:13:40;;;;;;;37.60;6.93;;;14.00;99.90;;;;;;4874167;29;20057;-87
2021/11/12 11:16:18;;;;;;;32.88;6.13;;;14.10;99.90;;;;;;4874899;29;20576;-87
2021/11/12 11:18:51;;;;;;;35.28;6.40;;;14.10;99.90;;;;;;4887819;29;20112;-87
2021/11/12 11:23:59;;;;;;;27.90;6.20;;;14.00;99.90;;;;;;4887577;29;20049;-87
2021/11/12 11:26:39;;;;;;;28.75;5.78;;;14.00;99.90;;;;;;4888461;29;20045;-86
2021/11/12 11:29:11;;;;;;;26.52;4.93;;;13.90;99.90;;;;;;4884858;29;20049;-88
2021/11/12 11:31:39;;;;;;;35.28;6.05;;;13.90;99.90;;;;;;4877880;29;20195;-88
2021/11/12 11:34:06;;;;;;;35.70;5.90;;;13.90;99.90;;;;;;4878370;29;20049;-87
2021/11/12 11:36:44;;;;;;;34.40;6.07;;;13.90;99.90;;;;;;4880399;29;20049;-87
2021/11/12 11:39:15;;;;;;;40.90;6.18;;;13.90;99.90;;;;;;4884996;29;20064;-89
2021/11/12 11:41:44;;;;;;;32.92;6.00;;;13.90;99.90;;;;;;4897923;29;20052;-87
2021/11/12 11:44:16;;;;;;;36.95;7.15;;;14.00;99.90;;;;;;4881280;29;20052;-89
2021/11/12 11:46:46;;;;;;;36.28;6.30;;;14.00;99.90;;;;;;4877556;29;20049;-88
2021/11/12 11:49:21;;;;;;;37.35;6.95;;;14.00;99.90;;;;;;4893633;29;20403;-87
2021/11/12 11:51:52;;;;;;;39.40;6.65;;;14.10;99.90;;;;;;4880351;29;20156;-87
2021/11/12 11:54:21;;;;;;;39.55;6.47;;;14.00;99.90;;;;;;4878350;29;20056;-87
2021/11/12 11:56:52;;;;;;;35.90;6.88;;;14.10;99.90;;;;;;4883986;29;20079;-90
2021/11/12 11:59:29;;;;;;;41.20;6.93;;;14.10;99.90;;;;;;4884585;29;20131;-86
2021/11/12 12:01:58;;;;;;;39.25;6.50;;;14.10;99.90;;;;;;4880051;29;20517;-87
2021/11/12 12:04:37;;;;;;;36.92;5.68;;;14.10;99.90;;;;;;4877883;29;20093;-88
2021/11/12 12:07:07;;;;;;;36.50;5.80;;;14.10;99.90;;;;;;4891864;29;20053;-87
2021/11/12 12:09:50;;;;;;;36.47;5.68;;;14.10;99.90;;;;;;4883566;29;20060;-89
2021/11/12 12:12:29;;;;;;;32.17;5.57;;;14.10;99.90;;;;;;4888929;29;20051;-87
2021/11/12 12:15:06;;;;;;;33.60;5.30;;;14.10;99.90;;;;;;4884767;29;20060;-87
2021/11/12 12:17:45;;;;;;;42.17;6.45;;;14.10;99.90;;;;;;4887286;29;20049;-87
2021/11/12 13:22:57;;;;;;;30.70;6.03;;;14.80;99.90;;;;;;4883712;29;20459;-86
2021/11/12 13:25:33;;;;;;;27.73;5.50;;;14.80;99.90;;;;;;4889208;29;20072;-84
2021/11/12 13:28:10;;;;;;;37.50;6.40;;;14.80;99.90;;;;;;4887545;29;20463;-85
2021/11/12 13:30:39;;;;;;;33.95;6.40;;;14.80;99.90;;;;;;4873530;29;20041;-87
2021/11/12 13:33:39;;;;;;;34.33;6.38;;;14.80;99.90;;;;;;4877383;29;20543;-88
2021/11/12 13:36:21;;;;;;;33.75;6.28;;;14.70;99.90;;;;;;4877942;29;20060;-88
2021/11/12 13:38:50;;;;;;;35.42;6.60;;;14.80;99.90;;;;;;4884423;29;20052;-85
2021/11/12 13:41:21;;;;;;;34.28;5.78;;;14.80;99.90;;;;;;4881731;29;20052;-87
2021/11/12 13:43:49;;;;;;;31.05;5.22;;;14.80;99.90;;;;;;4881988;29;20430;-88
2021/11/12 13:46:17;;;;;;;26.60;5.45;;;14.80;99.90;;;;;;4890390;29;20056;-85
2021/11/12 13:48:47;;;;;;;;;;;14.90;99.90;;;;;;4884189;29;20105;-87
2021/11/12 13:51:17;;;;;;;35.75;5.78;;;14.90;99.90;;;;;;4880199;29;19951;-88
2021/11/12 13:53:48;;;;;;;27.52;5.60;;;15.00;99.90;;;;;;4884810;29;20057;-86
2021/11/12 13:56:16;;;;;;;36.25;5.93;;;15.00;99.90;;;;;;4874609;29;20057;-87
2021/11/12 13:58:43;;;;;;;30.63;6.30;;;15.00;99.90;;;;;;4874617;29;20164;-88
2021/11/12 14:01:17;;;;;;;33.08;5.95;;;15.00;99.90;;;;;;4885413;29;20053;-87
2021/11/12 14:03:45;;;;;;;45.15;11.00;;;15.00;99.90;;;;;;4878168;29;20049;-87
2021/11/12 14:06:12;;;;;;;96.78;46.15;;;15.00;99.90;;;;;;4889377;29;20109;-88
2021/11/12 14:08:39;;;;;;;152.52;84.47;;;15.00;99.90;;;;;;4893134;29;20112;-88
2021/11/12 14:11:23;;;;;;;94.47;46.90;;;15.00;99.90;;;;;;4895731;29;20052;-87
2021/11/12 14:13:59;;;;;;;76.80;43.00;;;15.00;99.90;;;;;;4896170;29;20045;-86
2021/11/12 14:16:37;;;;;;;78.78;34.28;;;15.00;99.90;;;;;;4894461;29;20112;-86
2021/11/12 14:21:48;;;;;;;193.75;106.95;;;14.80;99.90;;;;;;4878163;29;20048;-89
2021/11/12 14:29:44;;;;;;;45.05;13.95;;;14.80;99.90;;;;;;4888522;29;20143;-89
2021/11/12 14:35:05;;;;;;;39.15;12.55;;;14.80;99.90;;;;;;4885302;29;20179;-88
2021/11/12 14:40:51;;;;;;;36.00;7.20;;;14.60;99.90;;;;;;4883371;29;20048;-86
2021/11/12 14:46:35;;;;;;;39.53;10.32;;;14.60;99.90;;;;;;4898524;29;20049;-86
2021/11/12 14:51:46;;;;;;;42.08;8.38;;;14.60;99.90;;;;;;4879945;29;20101;-84
2021/11/12 14:54:14;;;;;;;33.75;7.65;;;14.50;99.90;;;;;;4880303;29;20479;-89
2021/11/12 14:56:49;;;;;;;44.13;8.38;;;14.50;99.90;;;;;;4880401;29;20045;-88
2021/11/12 14:59:18;;;;;;;38.97;7.50;;;14.50;99.90;;;;;;4881009;29;20049;-88
2021/11/12 15:01:45;;;;;;;33.35;6.40;;;14.50;99.90;;;;;;4879008;29;20053;-85
2021/11/12 15:04:12;;;;;;;42.70;10.88;;;14.50;99.90;;;;;;4877871;29;20067;-84
2021/11/12 15:06:39;;;;;;;37.85;7.70;;;14.50;99.90;;;;;;4898660;29;20407;-87
2021/11/12 15:09:12;;;;;;;33.55;7.07;;;14.50;99.90;;;;;;4894641;29;20505;-87
2021/11/12 15:11:39;;;;;;;31.60;7.60;;;14.50;99.90;;;;;;4894907;29;20101;-87
2021/11/12 15:14:10;;;;;;;32.15;7.15;;;14.40;99.90;;;;;;4879243;29;20109;-84
2021/11/12 15:16:57;;;;;;;32.35;8.00;;;14.40;99.90;;;;;;4881416;29;20586;-85
2021/11/12 15:19:25;;;;;;;45.65;9.57;;;14.30;99.90;;;;;;4880825;29;20053;-86
2021/11/12 15:22:08;;;;;;;48.30;8.17;;;14.30;99.90;;;;;;4884494;29;20060;-85
2021/11/12 15:27:21;;;;;;;35.25;8.70;;;14.30;99.90;;;;;;4890725;29;20053;-88
2021/11/12 15:30:39;;;;;;;;;;;14.20;99.90;;;;;;4888029;29;20100;-88
2021/11/12 15:32:39;;;;;;;39.55;8.27;;;14.20;99.90;;;;;;4887860;29;19940;-86
2021/11/12 15:35:12;;;;;;;43.40;9.00;;;14.10;99.90;;;;;;4898593;29;20060;-88
2021/11/12 15:38:31;;;;;;;38.15;8.55;;;14.10;99.90;;;;;;4908075;29;20047;-95
2021/11/12 15:40:34;;;;;;;46.50;8.95;;;14.10;99.90;;;;;;4887330;29;20060;-86
2021/11/12 16:14:15;;;;;;;49.50;9.45;;;13.90;99.90;;;;;;4896149;29;20057;-92
2021/11/12 16:19:42;;;;;;;42.15;8.77;;;13.90;99.90;;;;;;4898017;29;20055;-86
2021/11/12 16:27:45;;;;;;;49.75;10.32;;;13.80;99.90;;;;;;4879226;29;20068;-88
2021/11/12 16:30:13;;;;;;;44.97;9.23;;;13.80;99.90;;;;;;4893946;29;20536;-91
2021/11/12 16:32:54;;;;;;;54.33;10.95;;;13.80;99.90;;;;;;4886677;29;20049;-90
2021/11/12 16:35:25;;;;;;;46.67;8.77;;;13.70;99.90;;;;;;4880658;29;20052;-90
2021/11/12 16:37:57;;;;;;;46.83;9.30;;;13.70;99.90;;;;;;4878094;29;20048;-87
2021/11/12 16:40:43;;;;;;;50.05;10.05;;;13.70;99.90;;;;;;4879379;29;20072;-87
2021/11/12 16:52:03;;;;;;;49.28;10.45;;;13.60;99.90;;;;;;4875430;29;20049;-87
2021/11/12 17:09:54;;;;;;;67.93;11.50;;;13.50;99.90;;;;;;4869986;29;20110;-85
2021/11/12 17:15:18;;;;;;;54.35;12.73;;;13.50;99.90;;;;;;4875238;29;20048;-85
2021/11/12 17:20:41;;;;;;;53.75;12.07;;;13.50;99.90;;;;;;4869146;29;20513;-87
2021/11/12 17:45:43;;;;;;;65.95;13.02;;;13.50;99.90;;;;;;4881989;29;20059;-88
2021/11/12 17:48:10;;;;;;;53.28;9.05;;;13.50;99.90;;;;;;4872027;29;20048;-87
2021/11/12 17:51:00;;;;;;;62.05;10.18;;;13.40;99.90;;;;;;4882023;29;20474;-87
2021/11/12 18:02:07;;;;;;;59.40;10.88;;;13.50;99.90;;;;;;4881868;29;20143;-85
2021/11/12 18:04:53;;;;;;;61.40;10.45;;;13.50;99.90;;;;;;4861636;29;20060;-84
2021/11/12 21:48:39;;;;;;;32.17;5.72;;;12.80;99.90;;;;;;4861390;29;20063;-81
2021/11/12 21:51:15;;;;;;;33.00;11.60;;;12.80;99.90;;;;;;4862362;29;20048;-81
2021/11/12 21:53:42;;;;;;;29.70;6.05;;;12.90;99.90;;;;;;4867886;29;20045;-82
2021/11/12 21:56:09;;;;;;;33.90;7.32;;;12.80;99.90;;;;;;4864902;29;20059;-81
2021/11/12 21:58:36;;;;;;;36.92;6.25;;;12.80;99.90;;;;;;4865384;29;20049;-82
2021/11/12 22:01:04;;;;;;;33.58;6.93;;;12.80;99.90;;;;;;4861909;29;20052;-82
2021/11/12 22:03:31;;;;;;;30.27;6.15;;;12.80;99.90;;;;;;4866832;29;20078;-82
2021/11/12 22:05:59;;;;;;;34.22;6.05;;;12.90;99.90;;;;;;4866750;29;20165;-81
2021/11/12 22:08:28;;;;;;;44.53;6.57;;;12.90;99.90;;;;;;4865753;29;20407;-81
2021/11/12 22:10:57;;;;;;;37.95;6.63;;;12.90;99.90;;;;;;4862001;29;20068;-81
2021/11/12 22:13:24;;;;;;;27.92;5.97;;;12.90;99.90;;;;;;4864544;29;20108;-81
2021/11/12 22:15:51;;;;;;;34.47;5.95;;;12.90;99.90;;;;;;4864493;29;20060;-81
2021/11/12 22:18:18;;;;;;;33.20;6.15;;;12.90;99.90;;;;;;4859275;29;20819;-82
2021/11/12 22:20:46;;;;;;;29.35;5.00;;;12.90;99.90;;;;;;4862985;29;20477;-80
2021/11/12 22:23:13;;;;;;;24.10;5.50;;;12.90;99.90;;;;;;4864902;29;20072;-79
2021/11/12 22:25:40;;;;;;;40.05;6.13;;;12.90;99.90;;;;;;4858950;29;20106;-80
2021/11/12 22:28:06;;;;;;;33.13;6.22;;;12.90;99.90;;;;;;4871394;29;20053;-80
2021/11/12 22:30:35;;;;;;;36.80;5.80;;;12.90;99.90;;;;;;4871499;29;20050;-80
2021/11/12 22:33:03;;;;;;;;;;;12.90;99.90;;;;;;4867949;29;20049;-79
2021/11/12 22:35:31;;;;;;;28.27;4.70;;;12.90;99.90;;;;;;4868745;29;20014;-80
2021/11/12 22:37:59;;;;;;;30.85;5.15;;;12.90;99.90;;;;;;4871882;29;20045;-80
2021/11/12 22:40:26;;;;;;;34.15;6.07;;;12.80;99.90;;;;;;4864781;29;20057;-80
2021/11/12 22:42:53;;;;;;;29.38;6.05;;;12.80;99.90;;;;;;4869567;29;20049;-80
2021/11/12 22:45:20;;;;;;;43.00;6.85;;;12.80;99.90;;;;;;4868893;29;20049;-80
2021/11/12 22:47:51;;;;;;;37.53;5.70;;;12.80;99.90;;;;;;4875608;29;20080;-81
2021/11/12 22:50:18;;;;;;;38.10;6.35;;;12.90;99.90;;;;;;4872421;29;20128;-80
2021/11/12 22:52:46;;;;;;;37.47;5.97;;;12.80;99.90;;;;;;4874679;29;20081;-80
2021/11/12 22:55:12;;;;;;;37.88;5.65;;;12.80;99.90;;;;;;4875059;29;20109;-80
2021/11/12 22:57:40;;;;;;;30.73;6.53;;;12.80;99.90;;;;;;4872340;29;20053;-80
2021/11/12 23:00:20;;;;;;;33.08;6.10;;;12.80;99.90;;;;;;4871329;29;20053;-80
2021/11/12 23:02:47;;;;;;;33.33;6.05;;;12.80;99.90;;;;;;4870147;29;20049;-80
2021/11/12 23:05:14;;;;;;;35.35;5.35;;;12.80;99.90;;;;;;4872720;29;20045;-80
2021/11/12 23:07:41;;;;;;;33.97;5.40;;;12.80;99.90;;;;;;4874215;29;20064;-80
2021/11/12 23:10:08;;;;;;;36.88;5.47;;;12.80;99.90;;;;;;4869237;29;20057;-80
2021/11/12 23:12:35;;;;;;;31.55;4.78;;;12.80;99.90;;;;;;4866473;29;20050;-80
2021/11/12 23:15:02;;;;;;;36.28;5.90;;;12.70;99.90;;;;;;4863930;29;20189;-81
2021/11/12 23:17:29;;;;;;;36.53;6.03;;;12.70;99.90;;;;;;4874365;29;20116;-80
2021/11/12 23:19:57;;;;;;;31.52;5.03;;;12.70;99.90;;;;;;4876125;29;20052;-81
2021/11/12 23:22:24;;;;;;;40.38;5.88;;;12.70;99.90;;;;;;4872520;29;20611;-80
2021/11/12 23:24:51;;;;;;;31.48;5.13;;;12.70;99.90;;;;;;4863389;29;20109;-81
2021/11/12 23:27:36;;;;;;;28.55;4.95;;;12.70;99.90;;;;;;4872849;29;20079;-81
2021/11/12 23:30:04;;;;;;;23.15;4.53;;;12.70;99.90;;;;;;4871495;29;20052;-81
2021/11/12 23:32:31;;;;;;;23.67;4.55;;;12.60;99.90;;;;;;4870471;29;20582;-81
2021/11/12 23:34:58;;;;;;;25.88;4.28;;;12.60;99.90;;;;;;4870074;29;20083;-81
2021/11/12 23:37:25;;;;;;;31.27;5.47;;;12.60;99.90;;;;;;4864857;29;20081;-81
2021/11/12 23:39:52;;;;;;;28.95;4.85;;;12.50;99.90;;;;;;4865914;29;20086;-81
2021/11/12 23:42:19;;;;;;;31.48;6.30;;;12.50;99.90;;;;;;4870913;29;20056;-82
2021/11/12 23:44:46;;;;;;;34.13;7.45;;;12.50;99.90;;;;;;4865505;29;20532;-82
2021/11/12 23:47:13;;;;;;;28.88;5.05;;;12.50;99.90;;;;;;4862590;29;20042;-81
2021/11/12 23:49:40;;;;;;;26.70;4.93;;;12.50;99.90;;;;;;4864944;29;20506;-81
2021/11/12 23:52:07;;;;;;;24.63;5.15;;;12.50;99.90;;;;;;4872971;29;20066;-80
2021/11/12 23:54:34;;;;;;;27.48;4.60;;;12.50;99.90;;;;;;4876880;29;20553;-81
2021/11/12 23:57:02;;;;;;;31.98;5.60;;;12.50;99.90;;;;;;4866167;29;20118;-82
2021/11/12 23:59:29;;;;;;;;;;;12.50;99.90;;;;;;4863694;29;20053;-81
